Time;durP1;ratioP1;P1;durP2;ratioP2;P2;SDS_P1;SDS_P2;PMS_P1;PMS_P2;Temp;Humidity;BMP_temperature;BMP_pressure;BME280_temperature;BME280_humidity;BME280_pressure;Samples;Min_cycle;Max_cycle;Signal;HPM_P1;HPM_P2
2021/12/30 00:01:25;;;;;;;;;;;10.60;64.90;;;;;;5093700;28;19953;-69
2021/12/30 00:03:50;;;;;;;;;;;10.60;65.00;;;;;;5093715;28;19998;-69
2021/12/30 00:06:22;;;;;;;;;;;10.70;65.20;;;;;;5092422;28;20403;-69
2021/12/30 00:08:48;;;;;;;;;;;10.70;65.20;;;;;;5093691;28;19995;-69
2021/12/30 00:11:13;;;;;;;;;;;10.70;65.20;;;;;;5093546;28;19940;-69
2021/12/30 00:13:44;;;;;;;;;;;10.70;65.10;;;;;;5093620;28;20385;-69
2021/12/30 00:16:10;;;;;;;;;;;10.70;65.00;;;;;;5093357;28;20377;-69
2021/12/30 00:18:36;;;;;;;;;;;10.70;64.90;;;;;;5093609;28;19908;-69
2021/12/30 00:21:01;;;;;;;;;;;10.70;64.90;;;;;;5095931;28;19912;-69
2021/12/30 00:23:27;;;;;;;;;;;10.70;64.90;;;;;;5115149;28;19912;-69
2021/12/30 00:25:52;;;;;;;;;;;10.70;64.90;;;;;;5109058;27;19912;-69
2021/12/30 00:28:19;;;;;;;;;;;10.70;64.90;;;;;;5098322;28;20331;-69
2021/12/30 00:30:45;;;;;;;;;;;10.70;64.80;;;;;;5104264;28;19994;-69
2021/12/30 00:33:11;;;;;;;;;;;10.70;64.90;;;;;;5101117;28;20003;-69
2021/12/30 00:35:37;;;;;;;;;;;10.70;64.90;;;;;;5097389;28;20254;-69
2021/12/30 00:38:04;;;;;;;;;;;10.70;64.90;;;;;;5111975;28;20006;-68
2021/12/30 00:40:30;;;;;;;;;;;10.70;64.90;;;;;;5111021;27;19980;-69
2021/12/30 00:42:55;;;;;;;;;;;10.80;65.00;;;;;;5097610;28;19958;-69
2021/12/30 00:45:21;;;;;;;;;;;10.80;64.90;;;;;;5096335;28;19959;-69
2021/12/30 00:47:47;;;;;;;;;;;10.80;64.90;;;;;;5102913;28;19912;-68
2021/12/30 00:50:13;;;;;;;;;;;10.80;64.90;;;;;;5116655;28;19912;-69
2021/12/30 00:52:38;;;;;;;;;;;10.90;65.80;;;;;;5116621;28;19956;-69
2021/12/30 00:55:04;;;;;;;;;;;10.90;65.00;;;;;;5116466;28;19908;-69
2021/12/30 00:57:30;;;;;;;;;;;10.90;65.00;;;;;;5112785;28;19920;-69
2021/12/30 00:59:55;;;;;;;;;;;10.90;65.00;;;;;;5096181;28;19908;-68
2021/12/30 01:02:21;;;;;;;;;;;10.90;65.10;;;;;;5096018;28;19912;-69
2021/12/30 01:04:46;;;;;;;;;;;11.00;65.10;;;;;;5096229;28;19909;-68
2021/12/30 01:07:12;;;;;;;;;;;11.00;65.10;;;;;;5096251;28;19908;-69
2021/12/30 01:09:38;;;;;;;;;;;11.00;65.10;;;;;;5099181;28;19916;-68
2021/12/30 01:12:04;;;;;;;;;;;11.00;65.10;;;;;;5115890;28;20326;-69
2021/12/30 01:14:31;;;;;;;;;;;11.10;65.10;;;;;;5116000;28;19951;-69
2021/12/30 01:17:00;;;;;;;;;;;11.10;65.10;;;;;;5115831;28;19920;-69
2021/12/30 01:19:44;;;;;;;;;;;11.10;65.00;;;;;;5115316;28;20430;-68
2021/12/30 01:22:12;;;;;;;;;;;11.10;64.90;;;;;;5095756;28;20420;-69
2021/12/30 01:24:37;;;;;;;;;;;11.10;64.90;;;;;;5096104;28;19958;-67
2021/12/30 01:27:03;;;;;;;;;;;11.10;65.70;;;;;;5114605;28;20365;-68
2021/12/30 01:29:30;;;;;;;;;;;11.10;65.00;;;;;;5115787;28;20356;-68
2021/12/30 01:31:56;;;;;;;;;;;11.10;64.90;;;;;;5114266;28;20347;-68
2021/12/30 01:34:22;;;;;;;;;;;11.20;65.00;;;;;;5095414;28;19912;-68
2021/12/30 01:36:48;;;;;;;;;;;11.10;64.90;;;;;;5095324;28;19916;-68
2021/12/30 01:39:13;;;;;;;;;;;11.10;64.90;;;;;;5095179;28;20020;-67
2021/12/30 01:41:40;;;;;;;;;;;11.20;64.90;;;;;;5095263;28;19914;-67
2021/12/30 01:44:06;;;;;;;;;;;11.20;64.90;;;;;;5095260;28;19912;-67
2021/12/30 01:46:40;;;;;;;;;;;11.20;64.80;;;;;;5093959;28;19909;-67
2021/12/30 01:49:05;;;;;;;;;;;11.20;64.80;;;;;;5095200;28;19908;-67
2021/12/30 01:51:31;;;;;;;;;;;11.20;64.80;;;;;;5095228;28;19962;-67
2021/12/30 01:53:57;;;;;;;;;;;11.20;64.80;;;;;;5095177;28;19909;-67
2021/12/30 01:56:22;;;;;;;;;;;11.20;64.70;;;;;;5095900;28;19912;-66
2021/12/30 01:58:48;;;;;;;;;;;11.20;64.60;;;;;;5095209;28;19908;-67
2021/12/30 02:01:14;;;;;;;;;;;11.20;64.70;;;;;;5095016;28;19935;-67
2021/12/30 02:03:39;;;;;;;;;;;11.20;64.70;;;;;;5094849;28;19999;-67
2021/12/30 02:06:05;;;;;;;;;;;11.20;64.70;;;;;;5094757;28;19907;-67
2021/12/30 02:08:30;;;;;;;;;;;11.20;64.70;;;;;;5094687;28;19912;-67
2021/12/30 02:10:56;;;;;;;;;;;11.30;64.80;;;;;;5110237;28;19980;-67
2021/12/30 02:13:22;;;;;;;;;;;11.20;64.80;;;;;;5113734;28;19907;-67
2021/12/30 02:15:48;;;;;;;;;;;11.20;64.90;;;;;;5114731;28;20434;-67
2021/12/30 02:18:14;;;;;;;;;;;11.20;64.90;;;;;;5113885;28;19907;-67
2021/12/30 02:20:46;;;;;;;;;;;11.20;64.70;;;;;;5108848;28;19930;-67
2021/12/30 02:23:25;;;;;;;;;;;11.20;64.80;;;;;;5094760;28;19912;-67
2021/12/30 02:25:52;;;;;;;;;;;11.20;64.80;;;;;;5113441;28;20326;-67
2021/12/30 02:28:18;;;;;;;;;;;11.20;64.80;;;;;;5114709;28;19933;-67
2021/12/30 02:30:45;;;;;;;;;;;11.10;64.80;;;;;;5111475;28;20023;-67
2021/12/30 02:33:11;;;;;;;;;;;11.10;64.90;;;;;;5094305;28;19961;-67
2021/12/30 02:35:36;;;;;;;;;;;11.10;64.90;;;;;;5094229;28;20331;-67
2021/12/30 02:38:03;;;;;;;;;;;11.10;64.80;;;;;;5094147;28;19908;-67
2021/12/30 02:40:32;;;;;;;;;;;11.10;64.80;;;;;;5094053;28;19908;-67
2021/12/30 02:42:58;;;;;;;;;;;11.10;64.90;;;;;;5096352;28;19931;-67
2021/12/30 02:45:24;;;;;;;;;;;11.10;65.70;;;;;;5113534;28;20284;-67
2021/12/30 02:47:49;;;;;;;;;;;11.10;65.00;;;;;;5114383;28;19915;-67
2021/12/30 02:50:15;;;;;;;;;;;11.10;65.00;;;;;;5110104;28;19923;-67
2021/12/30 02:52:40;;;;;;;;;;;11.10;64.90;;;;;;5093960;28;19995;-67
2021/12/30 02:55:06;;;;;;;;;;;11.10;64.90;;;;;;5103646;28;19980;-67
2021/12/30 02:57:32;;;;;;;;;;;11.10;64.90;;;;;;5114291;28;19957;-67
2021/12/30 02:59:58;;;;;;;;;;;11.10;64.90;;;;;;5114399;28;19915;-67
2021/12/30 03:02:23;;;;;;;;;;;11.10;64.90;;;;;;5112523;28;19947;-68
2021/12/30 03:04:49;;;;;;;;;;;11.20;65.00;;;;;;5114413;28;19916;-68
2021/12/30 03:07:18;;;;;;;;;;;11.10;64.90;;;;;;5114579;28;19912;-68
2021/12/30 03:09:44;;;;;;;;;;;11.20;65.00;;;;;;5113894;28;19914;-68
2021/12/30 03:12:10;;;;;;;;;;;11.20;65.00;;;;;;5105483;28;20355;-68
2021/12/30 03:14:41;;;;;;;;;;;11.20;64.90;;;;;;5093626;28;20003;-67
2021/12/30 03:17:07;;;;;;;;;;;11.20;64.90;;;;;;5093262;28;19924;-68
2021/12/30 03:19:33;;;;;;;;;;;11.20;64.90;;;;;;5098385;28;19954;-67
2021/12/30 03:21:59;;;;;;;;;;;11.20;64.80;;;;;;5095405;28;19912;-67
2021/12/30 03:24:25;;;;;;;;;;;11.20;64.80;;;;;;5112056;28;19912;-67
2021/12/30 03:26:50;;;;;;;;;;;11.20;64.80;;;;;;5113587;28;19908;-67
2021/12/30 03:29:16;;;;;;;;;;;11.20;64.80;;;;;;5113607;28;19962;-67
2021/12/30 03:31:42;;;;;;;;;;;11.20;64.80;;;;;;5112165;28;19967;-67
2021/12/30 03:34:07;;;;;;;;;;;11.20;64.70;;;;;;5113508;28;19919;-67
2021/12/30 03:36:33;;;;;;;;;;;11.20;64.70;;;;;;5110426;28;19915;-67
2021/12/30 03:38:59;;;;;;;;;;;11.30;64.80;;;;;;5093095;28;19915;-67
2021/12/30 03:41:27;;;;;;;;;;;11.30;64.80;;;;;;5093087;28;19916;-67
2021/12/30 03:43:54;;;;;;;;;;;11.30;64.90;;;;;;5092887;28;19915;-67
2021/12/30 03:46:20;;;;;;;;;;;11.30;64.90;;;;;;5092949;28;19912;-67
2021/12/30 03:48:45;;;;;;;;;;;11.30;64.80;;;;;;5095679;28;19972;-68
2021/12/30 03:51:14;;;;;;;;;;;11.30;64.80;;;;;;5111996;28;19911;-68
2021/12/30 03:53:41;;;;;;;;;;;11.30;64.80;;;;;;5113232;28;19908;-67
2021/12/30 03:56:10;;;;;;;;;;;11.30;64.80;;;;;;5112752;28;19943;-68
2021/12/30 03:58:36;;;;;;;;;;;11.40;64.70;;;;;;5113140;28;20415;-67
2021/12/30 04:01:03;;;;;;;;;;;11.30;64.60;;;;;;5113087;28;19957;-67
2021/12/30 04:03:29;;;;;;;;;;;11.30;64.50;;;;;;5110085;28;20010;-67
2021/12/30 04:05:54;;;;;;;;;;;11.30;64.50;;;;;;5113126;28;20007;-67
2021/12/30 04:08:20;;;;;;;;;;;11.30;64.50;;;;;;5113001;28;20284;-68
2021/12/30 04:10:46;;;;;;;;;;;11.30;64.40;;;;;;5113067;28;19911;-67
2021/12/30 04:13:11;;;;;;;;;;;11.20;64.40;;;;;;5113005;28;19919;-67
2021/12/30 04:15:37;;;;;;;;;;;11.20;64.50;;;;;;5098606;28;20369;-69
2021/12/30 04:18:05;;;;;;;;;;;11.20;64.60;;;;;;5092108;28;20226;-67
2021/12/30 04:20:30;;;;;;;;;;;11.20;64.60;;;;;;5107202;28;19912;-67
2021/12/30 04:22:56;;;;;;;;;;;11.20;64.70;;;;;;5113265;28;20272;-67
2021/12/30 04:25:21;;;;;;;;;;;11.20;64.70;;;;;;5112597;28;19912;-67
2021/12/30 04:27:47;;;;;;;;;;;11.20;64.70;;;;;;5097977;28;20285;-66
2021/12/30 04:30:14;;;;;;;;;;;11.20;64.70;;;;;;5092506;28;19987;-67
2021/12/30 04:32:40;;;;;;;;;;;11.20;64.90;;;;;;5092433;28;19908;-67
2021/12/30 04:35:06;;;;;;;;;;;11.20;64.90;;;;;;5092376;28;20010;-67
2021/12/30 04:37:32;;;;;;;;;;;11.20;64.90;;;;;;5092506;28;19912;-67
2021/12/30 04:39:57;;;;;;;;;;;11.20;64.90;;;;;;5093434;28;19915;-67
2021/12/30 04:42:23;;;;;;;;;;;11.20;64.80;;;;;;5091112;28;19999;-67
2021/12/30 04:44:49;;;;;;;;;;;11.20;64.80;;;;;;5092366;28;19908;-67
2021/12/30 04:47:15;;;;;;;;;;;11.20;64.80;;;;;;5092433;28;19912;-67
2021/12/30 04:49:40;;;;;;;;;;;11.20;64.80;;;;;;5092338;28;19915;-67
2021/12/30 04:52:06;;;;;;;;;;;11.20;64.80;;;;;;5103456;28;19912;-67
2021/12/30 04:54:32;;;;;;;;;;;11.20;64.70;;;;;;5112822;28;20024;-67
2021/12/30 04:56:59;;;;;;;;;;;11.20;64.80;;;;;;5112468;28;19915;-68
2021/12/30 04:59:24;;;;;;;;;;;11.20;64.80;;;;;;5112451;28;19915;-67
2021/12/30 05:01:50;;;;;;;;;;;11.20;64.90;;;;;;5112489;28;19908;-67
2021/12/30 05:04:16;;;;;;;;;;;11.20;65.00;;;;;;5101625;28;20406;-67
2021/12/30 05:06:42;;;;;;;;;;;11.20;65.10;;;;;;5090894;28;19916;-67
2021/12/30 05:09:08;;;;;;;;;;;11.20;65.20;;;;;;5095672;28;19961;-67
2021/12/30 05:11:40;;;;;;;;;;;11.20;65.20;;;;;;5095996;28;19908;-67
2021/12/30 05:14:06;;;;;;;;;;;11.20;65.20;;;;;;5095896;28;19915;-67
2021/12/30 05:16:32;;;;;;;;;;;11.20;65.30;;;;;;5096578;28;19931;-67
2021/12/30 05:18:58;;;;;;;;;;;11.20;65.30;;;;;;5095878;28;19916;-67
2021/12/30 05:21:24;;;;;;;;;;;11.20;65.30;;;;;;5116146;28;20369;-68
2021/12/30 05:23:50;;;;;;;;;;;11.20;65.40;;;;;;5115986;28;19947;-67
2021/12/30 05:26:16;;;;;;;;;;;11.20;65.40;;;;;;5115846;28;19908;-68
2021/12/30 05:28:45;;;;;;;;;;;11.20;65.40;;;;;;5108178;28;19920;-67
2021/12/30 05:31:11;;;;;;;;;;;11.20;65.50;;;;;;5095470;28;19916;-67
2021/12/30 05:33:36;;;;;;;;;;;11.20;65.40;;;;;;5095379;28;19914;-67
2021/12/30 05:36:02;;;;;;;;;;;11.20;65.50;;;;;;5095207;28;19916;-67
2021/12/30 05:38:28;;;;;;;;;;;11.20;65.40;;;;;;5095058;28;19909;-67
2021/12/30 05:40:53;;;;;;;;;;;11.20;65.40;;;;;;5096247;28;19912;-67
2021/12/30 05:43:19;;;;;;;;;;;11.20;65.40;;;;;;5095030;28;19943;-67
2021/12/30 05:45:45;;;;;;;;;;;11.30;65.50;;;;;;5095011;28;19914;-67
2021/12/30 05:48:10;;;;;;;;;;;11.20;65.40;;;;;;5095074;28;19908;-67
2021/12/30 05:50:36;;;;;;;;;;;11.30;65.50;;;;;;5095229;28;20463;-68
2021/12/30 05:53:02;;;;;;;;;;;11.30;65.40;;;;;;5096714;28;20003;-67
2021/12/30 05:55:31;;;;;;;;;;;11.30;65.50;;;;;;5115223;28;20353;-67
2021/12/30 05:57:57;;;;;;;;;;;11.30;65.40;;;;;;5115270;28;20262;-68
2021/12/30 06:00:24;;;;;;;;;;;11.30;65.40;;;;;;5105318;27;19919;-67
2021/12/30 06:02:51;;;;;;;;;;;11.20;65.30;;;;;;5094923;28;20258;-67
2021/12/30 06:05:16;;;;;;;;;;;11.30;65.30;;;;;;5094755;28;19995;-68
2021/12/30 06:07:42;;;;;;;;;;;11.20;65.30;;;;;;5094724;28;20027;-67
2021/12/30 06:10:08;;;;;;;;;;;11.20;65.40;;;;;;5100973;28;19988;-67
2021/12/30 06:12:33;;;;;;;;;;;11.30;65.40;;;;;;5113547;28;19915;-67
2021/12/30 06:14:59;;;;;;;;;;;11.30;65.50;;;;;;5114803;28;19911;-68
2021/12/30 06:17:25;;;;;;;;;;;11.30;65.50;;;;;;5114738;28;19927;-67
2021/12/30 06:19:50;;;;;;;;;;;11.30;65.50;;;;;;5102145;28;19916;-68
2021/12/30 06:22:16;;;;;;;;;;;11.30;65.40;;;;;;5097315;28;19933;-68
2021/12/30 06:24:42;;;;;;;;;;;11.30;65.30;;;;;;5111126;28;20011;-68
2021/12/30 06:27:08;;;;;;;;;;;11.40;65.30;;;;;;5094155;28;20301;-67
2021/12/30 06:29:34;;;;;;;;;;;11.40;65.30;;;;;;5094148;28;19912;-68
2021/12/30 06:32:00;;;;;;;;;;;11.40;65.30;;;;;;5093233;28;19922;-68
2021/12/30 06:34:26;;;;;;;;;;;11.40;65.30;;;;;;5094806;28;19916;-68
2021/12/30 06:36:52;;;;;;;;;;;11.40;65.30;;;;;;5094315;28;19912;-68
2021/12/30 06:39:17;;;;;;;;;;;11.40;65.20;;;;;;5094105;28;19995;-68
2021/12/30 06:41:43;;;;;;;;;;;11.40;65.10;;;;;;5093951;28;19917;-68
2021/12/30 06:44:09;;;;;;;;;;;11.40;65.10;;;;;;5093876;28;19908;-69
2021/12/30 06:46:34;;;;;;;;;;;11.40;65.10;;;;;;5094848;28;19915;-68
2021/12/30 06:49:00;;;;;;;;;;;11.40;65.10;;;;;;5093959;28;19908;-68
2021/12/30 06:51:27;;;;;;;;;;;11.40;65.10;;;;;;5093809;28;19908;-68
2021/12/30 06:53:55;;;;;;;;;;;11.40;65.10;;;;;;5093815;28;19919;-68
2021/12/30 06:56:22;;;;;;;;;;;11.40;65.10;;;;;;5093666;28;19912;-68
2021/12/30 06:58:47;;;;;;;;;;;11.40;65.20;;;;;;5092323;28;19908;-69
2021/12/30 07:01:13;;;;;;;;;;;11.40;65.30;;;;;;5112296;28;20419;-68
2021/12/30 07:03:39;;;;;;;;;;;11.40;65.30;;;;;;5114027;28;19912;-67
2021/12/30 07:06:05;;;;;;;;;;;11.50;65.30;;;;;;5113947;28;19908;-68
2021/12/30 07:08:31;;;;;;;;;;;11.50;65.30;;;;;;5113978;28;20261;-68
2021/12/30 07:10:56;;;;;;;;;;;11.50;65.30;;;;;;5113915;27;19936;-69
2021/12/30 07:13:22;;;;;;;;;;;11.50;65.30;;;;;;5112081;28;19912;-69
2021/12/30 07:15:47;;;;;;;;;;;11.50;65.30;;;;;;5113472;28;19912;-69
2021/12/30 07:18:13;;;;;;;;;;;11.50;65.20;;;;;;5113583;27;19918;-69
2021/12/30 07:20:38;;;;;;;;;;;11.60;65.30;;;;;;5094505;28;19908;-68
2021/12/30 07:23:04;;;;;;;;;;;11.60;65.30;;;;;;5093153;28;19908;-69
2021/12/30 07:25:30;;;;;;;;;;;11.60;65.30;;;;;;5094301;28;20354;-69
2021/12/30 07:27:56;;;;;;;;;;;11.70;65.40;;;;;;5100314;28;19908;-69
2021/12/30 07:30:23;;;;;;;;;;;11.70;65.30;;;;;;5112975;28;19912;-69
2021/12/30 07:32:48;;;;;;;;;;;11.70;65.20;;;;;;5113460;28;19915;-69
2021/12/30 07:35:15;;;;;;;;;;;11.70;65.20;;;;;;5113248;27;19908;-68
2021/12/30 07:37:41;;;;;;;;;;;11.70;65.20;;;;;;5111648;28;19924;-69
2021/12/30 07:40:07;;;;;;;;;;;11.80;65.20;;;;;;5111604;28;19964;-69
2021/12/30 07:42:33;;;;;;;;;;;11.80;65.20;;;;;;5113137;28;19907;-68
2021/12/30 07:44:58;;;;;;;;;;;11.80;65.20;;;;;;5113240;28;19916;-69
2021/12/30 07:47:24;;;;;;;;;;;11.80;65.20;;;;;;5113343;27;20229;-69
2021/12/30 07:49:50;;;;;;;;;;;11.90;65.20;;;;;;5111262;28;19908;-69
2021/12/30 07:52:15;;;;;;;;;;;11.90;65.20;;;;;;5113046;28;20513;-69
2021/12/30 07:54:43;;;;;;;;;;;12.00;65.20;;;;;;5112989;28;19912;-69
2021/12/30 07:57:12;;;;;;;;;;;12.00;65.20;;;;;;5112914;28;19959;-69
2021/12/30 07:59:37;;;;;;;;;;;12.00;65.20;;;;;;5113015;28;19908;-68
2021/12/30 08:02:03;;;;;;;;;;;12.00;65.20;;;;;;5110853;28;19961;-69
2021/12/30 08:04:29;;;;;;;;;;;12.10;65.10;;;;;;5102188;28;19912;-68
2021/12/30 08:06:55;;;;;;;;;;;12.10;65.00;;;;;;5098078;28;20050;-68
2021/12/30 08:09:20;;;;;;;;;;;12.20;64.90;;;;;;5110365;28;19911;-67
2021/12/30 08:11:46;;;;;;;;;;;12.10;64.80;;;;;;5112086;28;19912;-68
2021/12/30 08:14:12;;;;;;;;;;;12.20;64.80;;;;;;5108542;28;20295;-67
2021/12/30 08:16:37;;;;;;;;;;;12.20;64.90;;;;;;5096636;28;20007;-68
2021/12/30 08:19:03;;;;;;;;;;;12.20;64.90;;;;;;5097227;28;19915;-68
2021/12/30 08:21:29;;;;;;;;;;;12.30;64.80;;;;;;5092590;28;20377;-68
2021/12/30 08:23:54;;;;;;;;;;;12.30;64.70;;;;;;5092357;28;20452;-68
2021/12/30 08:26:20;;;;;;;;;;;12.30;64.60;;;;;;5091916;28;19916;-68
2021/12/30 08:28:46;;;;;;;;;;;12.30;64.40;;;;;;5092289;28;19908;-68
2021/12/30 08:31:12;;;;;;;;;;;12.30;64.30;;;;;;5092369;28;19978;-68
2021/12/30 08:33:38;;;;;;;;;;;12.30;64.30;;;;;;5092278;28;19915;-68
2021/12/30 08:36:04;;;;;;;;;;;12.40;64.30;;;;;;5107370;28;20365;-68
2021/12/30 08:38:29;;;;;;;;;;;12.30;64.30;;;;;;5092404;28;19908;-68
2021/12/30 08:40:55;;;;;;;;;;;12.40;64.30;;;;;;5092317;28;20254;-68
2021/12/30 08:43:21;;;;;;;;;;;12.40;64.30;;;;;;5095042;28;19958;-68
2021/12/30 08:45:47;;;;;;;;;;;12.30;64.10;;;;;;5105941;28;19958;-68
2021/12/30 08:48:13;;;;;;;;;;;12.30;63.90;;;;;;5102278;28;19954;-68
2021/12/30 08:50:38;;;;;;;;;;;12.30;63.70;;;;;;5095122;28;20344;-68
2021/12/30 08:53:04;;;;;;;;;;;12.20;63.50;;;;;;5096100;28;19915;-68
2021/12/30 08:55:30;;;;;;;;;;;12.20;63.50;;;;;;5095959;28;19978;-68
2021/12/30 08:57:56;;;;;;;;;;;12.20;63.60;;;;;;5096238;28;20357;-68
2021/12/30 09:00:26;;;;;;;;;;;12.20;63.80;;;;;;5095915;28;19942;-68
2021/12/30 09:02:53;;;;;;;;;;;12.20;64.00;;;;;;5094555;28;19957;-68
2021/12/30 09:05:19;;;;;;;;;;;12.20;64.10;;;;;;5095954;28;19909;-68
2021/12/30 09:07:46;;;;;;;;;;;12.20;64.10;;;;;;5095632;28;19919;-68
2021/12/30 09:10:13;;;;;;;;;;;12.10;64.00;;;;;;5103017;28;20387;-68
2021/12/30 09:12:42;;;;;;;;;;;12.20;64.20;;;;;;5116089;28;20007;-68
2021/12/30 09:15:08;;;;;;;;;;;12.20;64.30;;;;;;5114582;28;19908;-68
2021/12/30 09:17:33;;;;;;;;;;;12.30;64.60;;;;;;5115824;28;19920;-68
2021/12/30 09:19:59;;;;;;;;;;;12.30;64.80;;;;;;5116010;28;20288;-68
2021/12/30 09:22:24;;;;;;;;;;;12.40;64.90;;;;;;5114241;27;19919;-68
2021/12/30 09:24:50;;;;;;;;;;;12.40;65.00;;;;;;5114604;28;20383;-69
2021/12/30 09:27:15;;;;;;;;;;;12.50;65.00;;;;;;5115937;28;19918;-68
2021/12/30 09:29:41;;;;;;;;;;;12.60;65.00;;;;;;5115851;28;19911;-68
2021/12/30 09:32:08;;;;;;;;;;;12.70;65.00;;;;;;5115920;28;19911;-68
2021/12/30 09:34:34;;;;;;;;;;;12.80;65.60;;;;;;5114218;28;19921;-68
2021/12/30 09:37:00;;;;;;;;;;;12.90;66.10;;;;;;5115610;28;19912;-68
2021/12/30 09:39:25;;;;;;;;;;;13.00;66.40;;;;;;5115650;28;19908;-69
2021/12/30 09:41:51;;;;;;;;;;;13.10;66.80;;;;;;5115670;28;19934;-69
2021/12/30 09:44:18;;;;;;;;;;;13.20;66.90;;;;;;5115537;28;19908;-69
2021/12/30 09:46:44;;;;;;;;;;;13.30;67.10;;;;;;5113837;28;20012;-70
2021/12/30 09:49:12;;;;;;;;;;;13.50;67.20;;;;;;5115646;28;19930;-69
2021/12/30 09:51:37;;;;;;;;;;;13.60;67.20;;;;;;5114704;28;20326;-69
2021/12/30 09:54:03;;;;;;;;;;;13.70;67.20;;;;;;5114865;28;19908;-68
2021/12/30 09:56:29;;;;;;;;;;;13.80;67.20;;;;;;5115279;27;19911;-68
2021/12/30 09:58:55;;;;;;;;;;;13.90;67.10;;;;;;5115274;28;19957;-70
2021/12/30 10:01:21;;;;;;;;;;;14.00;67.10;;;;;;5096132;28;20612;-69
2021/12/30 10:03:47;;;;;;;;;;;14.10;67.10;;;;;;5095364;28;19955;-70
2021/12/30 10:06:14;;;;;;;;;;;14.30;67.20;;;;;;5095509;28;20327;-68
2021/12/30 10:08:51;;;;;;;;;;;14.40;67.30;;;;;;5094878;28;19916;-69
2021/12/30 10:11:17;;;;;;;;;;;14.50;67.20;;;;;;5095387;28;19908;-70
2021/12/30 10:13:53;;;;;;;;;;;14.60;67.10;;;;;;5111786;28;19957;-69
2021/12/30 10:16:19;;;;;;;;;;;14.80;66.90;;;;;;5114816;28;19924;-68
2021/12/30 10:18:50;;;;;;;;;;;14.80;66.70;;;;;;5113585;28;19908;-68
2021/12/30 10:21:22;;;;;;;;;;;14.90;66.50;;;;;;5113678;28;19907;-69
2021/12/30 10:23:55;;;;;;;;;;;15.00;66.30;;;;;;5114770;28;20392;-69
2021/12/30 10:26:21;;;;;;;;;;;15.00;66.00;;;;;;5113156;27;20458;-69
2021/12/30 10:28:50;;;;;;;;;;;15.10;65.90;;;;;;5114555;28;19907;-68
2021/12/30 10:31:17;;;;;;;;;;;15.10;65.80;;;;;;5114514;28;19908;-69
2021/12/30 10:34:06;;;;;;;;;;;15.20;65.80;;;;;;5114026;28;19912;-69
2021/12/30 10:36:33;;;;;;;;;;;15.20;65.60;;;;;;5106091;27;19919;-69
2021/12/30 10:39:16;;;;;;;;;;;15.30;65.40;;;;;;5098365;28;19916;-69
2021/12/30 10:41:42;;;;;;;;;;;15.30;65.20;;;;;;5114489;27;19916;-69
2021/12/30 10:44:07;;;;;;;;;;;15.30;65.10;;;;;;5114162;28;20044;-68
2021/12/30 10:46:33;;;;;;;;;;;15.40;65.10;;;;;;5114234;27;19919;-69
2021/12/30 10:49:04;;;;;;;;;;;15.40;65.10;;;;;;5111963;28;19911;-68
2021/12/30 10:51:32;;;;;;;;;;;15.40;65.00;;;;;;5093874;28;19914;-69
2021/12/30 10:53:59;;;;;;;;;;;15.50;65.00;;;;;;5093835;28;19908;-69
2021/12/30 10:56:32;;;;;;;;;;;15.50;65.00;;;;;;5093716;28;19919;-69
2021/12/30 10:59:27;;;;;;;;;;;15.60;65.70;;;;;;5093808;28;19947;-69
2021/12/30 11:02:01;;;;;;;;;;;15.60;65.00;;;;;;5085394;28;20159;-69
2021/12/30 11:04:32;;;;;;;;;;;15.60;64.90;;;;;;5093046;28;20349;-69
2021/12/30 11:06:58;;;;;;;;;;;15.70;64.90;;;;;;5091761;28;19908;-69
2021/12/30 11:09:24;;;;;;;;;;;15.70;64.90;;;;;;5093398;28;20254;-68
2021/12/30 11:11:54;;;;;;;;;;;15.80;64.90;;;;;;5099495;28;19915;-69
2021/12/30 11:14:21;;;;;;;;;;;15.80;65.00;;;;;;5092341;28;20382;-69
2021/12/30 11:16:53;;;;;;;;;;;15.90;65.00;;;;;;5091951;28;19926;-69
2021/12/30 11:19:20;;;;;;;;;;;15.90;65.00;;;;;;5093104;28;19948;-68
2021/12/30 11:21:47;;;;;;;;;;;16.00;65.10;;;;;;5092944;28;19919;-69
2021/12/30 11:24:13;;;;;;;;;;;16.00;65.00;;;;;;5102421;28;19919;-69
2021/12/30 11:26:39;;;;;;;;;;;16.10;65.00;;;;;;5112129;28;19912;-69
2021/12/30 11:29:06;;;;;;;;;;;16.10;64.80;;;;;;5113489;28;19908;-69
2021/12/30 11:31:32;;;;;;;;;;;16.20;64.80;;;;;;5113415;28;20289;-70
2021/12/30 11:33:58;;;;;;;;;;;16.20;64.70;;;;;;5113575;28;19947;-70
2021/12/30 11:36:24;;;;;;;;;;;16.30;64.70;;;;;;5113296;27;19919;-69
2021/12/30 11:38:50;;;;;;;;;;;16.40;64.80;;;;;;5098229;28;19962;-69
2021/12/30 11:41:20;;;;;;;;;;;16.40;64.70;;;;;;5102370;28;19963;-69
2021/12/30 11:43:46;;;;;;;;;;;16.50;64.80;;;;;;5113237;28;19912;-70
2021/12/30 11:46:48;;;;;;;;;;;16.60;64.70;;;;;;5113354;28;19915;-69
2021/12/30 11:49:14;;;;;;;;;;;16.60;64.70;;;;;;5033464;28;20333;-69
2021/12/30 11:51:44;;;;;;;;;;;16.70;64.50;;;;;;5050206;28;19912;-69
2021/12/30 11:54:28;;;;;;;;;;;16.80;64.40;;;;;;5049381;28;20388;-69
2021/12/30 11:57:12;;;;;;;;;;;16.80;64.40;;;;;;5049930;28;19919;-70
2021/12/30 11:59:39;;;;;;;;;;;16.90;64.40;;;;;;5050217;28;19912;-69
2021/12/30 12:02:34;;;;;;;;;;;16.90;64.40;;;;;;5050151;28;19909;-69
2021/12/30 12:05:20;;;;;;;;;;;17.00;64.30;;;;;;5033125;28;19908;-69
2021/12/30 12:08:11;;;;;;;;;;;17.10;64.00;;;;;;5035559;28;19916;-70
2021/12/30 12:10:38;;;;;;;;;;;17.10;63.90;;;;;;5046029;28;19912;-70
2021/12/30 12:13:22;;;;;;;;;;;17.20;63.80;;;;;;5031041;28;19921;-69
2021/12/30 12:15:49;;;;;;;;;;;17.20;63.70;;;;;;5012904;28;20447;-69
2021/12/30 12:18:15;;;;;;;;;;;17.20;63.80;;;;;;5030007;28;20494;-70
2021/12/30 12:20:50;;;;;;;;;;;17.30;63.80;;;;;;5030100;28;19910;-69
2021/12/30 12:23:31;;;;;;;;;;;17.30;63.70;;;;;;5062774;28;19908;-69
2021/12/30 12:26:11;;;;;;;;;;;17.30;63.60;;;;;;5095597;28;20394;-69
2021/12/30 12:28:36;;;;;;;;;;;17.30;63.60;;;;;;5112712;28;19914;-69
2021/12/30 12:31:06;;;;;;;;;;;17.40;64.30;;;;;;5112711;28;20006;-69
2021/12/30 12:33:32;;;;;;;;;;;17.40;63.50;;;;;;5112416;28;20002;-69
2021/12/30 12:35:59;;;;;;;;;;;17.40;63.40;;;;;;5111188;28;19929;-67
2021/12/30 12:38:37;;;;;;;;;;;17.50;63.30;;;;;;5096954;28;20007;-70
2021/12/30 12:41:14;;;;;;;;;;;17.50;63.30;;;;;;5102841;28;19915;-64
2021/12/30 12:43:40;;;;;;;;;;;17.40;63.10;;;;;;5108511;28;19950;-66
2021/12/30 12:46:06;;;;;;;;;;;17.40;63.10;;;;;;5111484;28;19959;-68
2021/12/30 12:48:41;;;;;;;;;;;17.40;63.10;;;;;;5112516;28;19912;-66
2021/12/30 12:51:24;;;;;;;;;;;17.40;63.20;;;;;;5112506;28;20418;-69
2021/12/30 12:53:56;;;;;;;;;;;17.40;63.20;;;;;;5109903;28;19974;-66
2021/12/30 12:56:27;;;;;;;;;;;17.40;63.30;;;;;;5091207;28;20472;-66
2021/12/30 12:58:53;;;;;;;;;;;17.40;63.40;;;;;;5093504;28;20345;-67
2021/12/30 13:01:23;;;;;;;;;;;17.40;63.50;;;;;;5092091;28;19912;-66
2021/12/30 13:03:50;;;;;;;;;;;17.40;63.60;;;;;;5105428;28;19907;-66
2021/12/30 13:06:18;;;;;;;;;;;17.40;63.60;;;;;;5091783;28;20011;-68
2021/12/30 13:08:46;;;;;;;;;;;17.30;63.50;;;;;;5099747;28;19907;-68
2021/12/30 13:11:23;;;;;;;;;;;17.30;63.60;;;;;;5091970;28;19916;-69
2021/12/30 13:13:49;;;;;;;;;;;17.30;63.60;;;;;;5092576;28;19927;-69
2021/12/30 13:16:23;;;;;;;;;;;17.30;63.60;;;;;;5093534;28;19924;-68
2021/12/30 13:19:07;;;;;;;;;;;17.30;63.70;;;;;;5109615;28;20040;-69
2021/12/30 13:21:37;;;;;;;;;;;17.20;63.70;;;;;;5107793;28;19966;-70
2021/12/30 13:24:03;;;;;;;;;;;17.20;63.80;;;;;;5099257;28;20382;-67
2021/12/30 13:26:36;;;;;;;;;;;17.20;63.80;;;;;;5107988;28;20019;-72
2021/12/30 13:29:01;;;;;;;;;;;17.10;63.90;;;;;;5108816;28;20364;-74
2021/12/30 13:31:31;;;;;;;;;;;17.10;64.00;;;;;;5114535;28;19955;-71
2021/12/30 13:33:58;;;;;;;;;;;17.10;64.10;;;;;;5107577;28;19999;-68
2021/12/30 13:36:25;;;;;;;;;;;17.10;64.10;;;;;;5109061;28;19919;-66
2021/12/30 13:38:50;;;;;;;;;;;17.00;64.10;;;;;;5115072;28;19958;-67
2021/12/30 13:41:17;;;;;;;;;;;17.00;64.20;;;;;;5101005;28;19940;-74
2021/12/30 13:43:44;;;;;;;;;;;17.00;64.30;;;;;;5111255;27;19912;-70
2021/12/30 13:46:10;;;;;;;;;;;16.90;64.20;;;;;;5113361;28;19969;-71
2021/12/30 13:48:38;;;;;;;;;;;16.90;64.30;;;;;;5104770;28;19919;-75
2021/12/30 13:51:05;;;;;;;;;;;16.80;64.40;;;;;;5111678;27;20006;-71
2021/12/30 13:53:31;;;;;;;;;;;16.90;64.60;;;;;;5107104;27;20366;-74
2021/12/30 13:55:59;;;;;;;;;;;16.80;64.60;;;;;;5105055;28;20354;-69
2021/12/30 13:58:26;;;;;;;;;;;16.80;64.60;;;;;;5109816;28;19943;-69
2021/12/30 14:01:03;;;;;;;;;;;16.80;64.80;;;;;;5113914;28;20284;-68
2021/12/30 14:03:30;;;;;;;;;;;16.70;64.80;;;;;;5110322;28;20290;-69
2021/12/30 14:06:10;;;;;;;;;;;16.70;65.00;;;;;;5107792;28;19999;-69
2021/12/30 14:08:36;;;;;;;;;;;16.70;65.00;;;;;;5095136;28;19948;-68
2021/12/30 14:11:03;;;;;;;;;;;16.70;65.10;;;;;;5105315;28;19919;-68
2021/12/30 14:13:33;;;;;;;;;;;16.70;65.10;;;;;;5115978;28;19952;-68
2021/12/30 14:15:59;;;;;;;;;;;16.70;65.10;;;;;;5115344;28;19920;-68
2021/12/30 14:18:28;;;;;;;;;;;16.70;65.20;;;;;;5115790;28;19973;-68